Time;durP1;ratioP1;P1;durP2;ratioP2;P2;SDS_P1;SDS_P2;PMS_P1;PMS_P2;Temp;Humidity;BMP_temperature;BMP_pressure;BME280_temperature;BME280_humidity;BME280_pressure;Samples;Min_cycle;Max_cycle;Signal;HPM_P1;HPM_P2
2023/02/11 00:01:31;;;;;;;17.93;11.40;;;1.60;99.90;1.30;102098.00;;;;4910822;28;110506;-66
2023/02/11 00:03:58;;;;;;;16.90;9.30;;;1.60;99.90;1.30;102090.00;;;;4920279;28;87678;-65
2023/02/11 00:06:27;;;;;;;14.87;9.70;;;1.50;99.90;1.30;102080.00;;;;4918604;28;89798;-65
2023/02/11 00:08:53;;;;;;;22.20;11.33;;;1.70;99.90;1.20;102064.00;;;;4915253;28;89431;-65
2023/02/11 00:11:21;;;;;;;12.63;9.13;;;1.60;99.90;1.20;102083.00;;;;4918373;28;103302;-65
2023/02/11 00:13:48;;;;;;;16.70;11.43;;;1.60;99.90;1.20;102069.00;;;;4918649;28;87673;-65
2023/02/11 00:16:19;;;;;;;19.00;10.53;;;1.60;99.90;1.30;102074.00;;;;4910928;28;89106;-66
2023/02/11 00:18:45;;;;;;;20.97;10.87;;;1.60;99.90;1.30;102072.00;;;;4912887;28;111038;-66
2023/02/11 00:21:19;;;;;;;12.57;9.37;;;1.60;99.90;1.30;102067.00;;;;4912520;28;88392;-65
2023/02/11 00:23:45;;;;;;;16.13;12.77;;;1.60;99.90;1.40;102057.00;;;;4927589;28;87291;-66
2023/02/11 00:26:28;;;;;;;20.90;9.37;;;1.60;99.90;1.40;102044.00;;;;4912508;28;89225;-65
2023/02/11 00:28:54;;;;;;;14.93;9.43;;;1.60;99.90;1.40;102032.00;;;;4927931;28;88014;-67
2023/02/11 00:31:21;;;;;;;25.87;10.10;;;1.70;99.90;1.50;102036.00;;;;4918783;28;100058;-66
2023/02/11 00:33:47;;;;;;;22.47;10.90;;;1.70;99.90;1.50;102039.00;;;;4916440;28;87816;-67
2023/02/11 00:36:17;;;;;;;29.40;11.90;;;1.70;99.90;1.50;102030.00;;;;4913140;28;88466;-66
2023/02/11 00:38:45;;;;;;;21.53;9.33;;;2.70;99.90;1.50;102018.00;;;;4913022;28;88694;-66
2023/02/11 00:41:12;;;;;;;17.70;9.33;;;1.90;99.90;1.60;102006.00;;;;4914934;28;90231;-66
2023/02/11 00:43:38;;;;;;;19.33;11.10;;;1.90;99.90;1.60;101993.00;;;;4913727;28;87776;-66
2023/02/11 00:46:04;;;;;;;18.07;10.03;;;1.80;99.90;1.60;101993.00;;;;4912620;28;104301;-66
2023/02/11 00:48:30;;;;;;;12.83;8.97;;;1.90;99.90;1.60;101992.00;;;;4916961;28;110956;-66
2023/02/11 00:50:56;;;;;;;17.47;10.90;;;1.90;99.90;1.70;101998.00;;;;4915208;28;104517;-66
2023/02/11 00:53:21;;;;;;;23.80;11.17;;;1.90;99.90;1.70;101997.00;;;;4915865;28;108193;-65
2023/02/11 00:55:47;;;;;;;13.63;8.33;;;1.90;99.90;1.70;102000.00;;;;4912900;28;118435;-67
2023/02/11 00:58:13;;;;;;;14.87;9.67;;;2.00;99.90;1.70;102000.00;;;;4915386;28;118804;-66
2023/02/11 01:00:38;;;;;;;11.50;9.33;;;1.90;99.90;1.80;102014.00;;;;4910736;28;111312;-65
2023/02/11 01:03:05;;;;;;;13.10;9.80;;;2.00;99.90;1.80;102008.00;;;;4913286;28;109135;-66
2023/02/11 01:05:31;;;;;;;18.77;9.30;;;1.90;99.90;1.80;102013.00;;;;4913216;28;88010;-65
2023/02/11 01:07:57;;;;;;;15.53;9.00;;;2.00;99.90;1.80;102020.00;;;;4913427;28;103867;-65
2023/02/11 01:10:22;;;;;;;12.00;7.47;;;2.20;99.90;1.90;102014.00;;;;4912926;28;104018;-65
2023/02/11 01:12:48;;;;;;;17.60;9.87;;;2.10;99.90;1.90;102009.00;;;;4911015;28;108450;-65
2023/02/11 01:15:17;;;;;;;12.70;8.70;;;2.10;99.90;1.90;102001.00;;;;4915824;28;89205;-67
2023/02/11 01:17:43;;;;;;;16.93;9.97;;;2.20;99.90;1.90;102003.00;;;;4915011;28;88867;-65
2023/02/11 01:20:18;;;;;;;13.40;9.57;;;2.80;99.90;1.90;101984.00;;;;4909702;28;89589;-66
2023/02/11 01:22:43;;;;;;;14.53;9.47;;;2.20;99.90;2.00;101985.00;;;;4908849;28;93332;-66
2023/02/11 01:25:09;;;;;;;15.53;8.80;;;2.20;99.90;2.00;101987.00;;;;4913989;28;117416;-65
2023/02/11 01:27:36;;;;;;;15.50;9.93;;;2.20;99.90;2.00;101976.00;;;;4917469;28;88176;-66
2023/02/11 01:30:05;;;;;;;12.97;8.87;;;2.30;99.90;2.00;101984.00;;;;4912591;28;87938;-67
2023/02/11 01:32:31;;;;;;;15.50;9.27;;;2.30;99.90;2.10;101985.00;;;;4914327;28;88152;-66
2023/02/11 01:34:57;;;;;;;16.43;10.30;;;2.40;99.90;2.10;101977.00;;;;4908318;28;110475;-66
2023/02/11 01:37:23;;;;;;;16.33;9.70;;;2.40;99.90;2.20;101990.00;;;;4909420;28;116815;-66
2023/02/11 01:39:49;;;;;;;14.57;9.23;;;2.50;99.90;2.20;101977.00;;;;4912054;28;113415;-66
2023/02/11 01:42:22;;;;;;;10.40;8.03;;;2.50;99.90;2.30;101974.00;;;;4911138;28;106988;-67
2023/02/11 01:44:53;;;;;;;15.93;9.63;;;2.60;99.90;2.30;101950.00;;;;4913062;28;89451;-66
2023/02/11 01:47:20;;;;;;;9.40;7.27;;;2.50;99.90;2.30;101941.00;;;;4914755;28;89747;-66
2023/02/11 01:49:56;;;;;;;17.83;9.30;;;2.60;99.90;2.40;101941.00;;;;4912123;28;94972;-65
2023/02/11 01:52:24;;;;;;;15.60;9.00;;;2.60;99.90;2.40;101945.00;;;;4929745;28;89963;-67
2023/02/11 01:57:41;;;;;;;14.20;8.17;;;2.90;99.90;2.60;101956.00;;;;4923666;28;87862;-67
2023/02/11 02:00:12;;;;;;;14.80;9.13;;;2.70;99.90;2.60;101941.00;;;;4929613;28;102000;-67
2023/02/11 02:02:59;;;;;;;18.23;9.57;;;2.80;99.90;2.70;101958.00;;;;4916434;28;87514;-66
2023/02/11 02:05:42;;;;;;;13.57;9.07;;;2.90;99.90;2.70;101957.00;;;;4911710;28;105684;-67
2023/02/11 02:08:28;;;;;;;12.40;8.53;;;2.90;99.90;2.80;101962.00;;;;4926747;28;107747;-66
2023/02/11 02:10:55;;;;;;;12.43;8.50;;;3.00;99.90;2.80;101960.00;;;;4914650;28;88835;-65
2023/02/11 02:13:23;;;;;;;11.77;8.43;;;3.10;99.90;2.80;101951.00;;;;4910653;28;88253;-65
2023/02/11 02:15:53;;;;;;;11.10;8.83;;;3.00;99.90;2.90;101957.00;;;;4912634;28;110675;-67
2023/02/11 02:19:15;;;;;;;13.03;8.20;;;3.20;99.90;2.90;101956.00;;;;4910817;28;89123;-64
2023/02/11 02:22:20;;;;;;;16.73;9.63;;;3.10;99.90;2.90;101968.00;;;;4929708;28;87816;-64
2023/02/11 02:25:27;;;;;;;12.83;8.47;;;3.20;99.90;3.00;101961.00;;;;4916317;28;87712;-66
2023/02/11 02:28:07;;;;;;;16.77;8.43;;;3.30;99.90;3.00;101948.00;;;;4912626;28;87783;-64
2023/02/11 02:30:57;;;;;;;11.83;8.27;;;3.20;99.90;3.00;101948.00;;;;4914609;28;87944;-67
2023/02/11 02:33:55;;;;;;;10.67;8.40;;;4.10;99.90;3.00;101935.00;;;;4910925;28;104725;-65
2023/02/11 02:36:39;;;;;;;16.77;9.93;;;3.30;99.90;2.90;101934.00;;;;4911247;28;87917;-66
2023/02/11 02:39:20;;;;;;;16.67;9.57;;;3.30;99.90;2.90;101933.00;;;;4914538;28;98012;-66
2023/02/11 02:41:47;;;;;;;15.53;8.73;;;3.20;99.90;2.90;101929.00;;;;4928863;28;102042;-65
2023/02/11 02:44:13;;;;;;;16.63;9.07;;;3.10;99.90;2.90;101936.00;;;;4915352;28;102335;-65
2023/02/11 02:46:39;;;;;;;12.83;8.57;;;3.10;99.90;2.90;101923.00;;;;4916747;28;108448;-66
2023/02/11 02:49:12;;;;;;;18.97;10.13;;;3.10;99.90;2.90;101919.00;;;;4912905;28;116790;-65
2023/02/11 02:52:10;;;;;;;13.43;8.37;;;3.10;99.90;3.00;101919.00;;;;4911349;28;87870;-66
2023/02/11 02:55:07;;;;;;;15.00;9.33;;;3.20;99.90;3.00;101926.00;;;;4914186;28;87809;-65
2023/02/11 02:58:13;;;;;;;16.70;9.27;;;3.30;99.90;3.10;101927.00;;;;4915697;28;87262;-66
2023/02/11 03:01:09;;;;;;;13.47;9.80;;;3.40;99.90;3.10;101906.00;;;;4925575;28;111446;-65
2023/02/11 03:04:01;;;;;;;18.90;9.37;;;3.30;99.90;3.20;101909.00;;;;4918696;28;88443;-66
2023/02/11 03:06:39;;;;;;;11.17;9.43;;;3.40;99.90;3.20;101905.00;;;;4914017;28;88944;-67
2023/02/11 03:09:15;;;;;;;18.43;10.67;;;3.50;99.90;3.20;101887.00;;;;4939009;28;101639;-66
2023/02/11 03:11:41;;;;;;;17.17;10.53;;;3.40;99.90;3.30;101885.00;;;;4925904;28;88596;-66
2023/02/11 03:14:11;;;;;;;11.13;8.53;;;3.70;99.90;3.30;101900.00;;;;4912903;28;116168;-66
2023/02/11 03:16:38;;;;;;;19.33;9.63;;;3.50;99.90;3.40;101892.00;;;;4936694;28;87909;-66
2023/02/11 03:19:12;;;;;;;19.50;9.47;;;3.60;99.90;3.40;101879.00;;;;4913638;28;87926;-66
2023/02/11 03:21:41;;;;;;;18.07;8.27;;;3.50;99.90;3.40;101872.00;;;;4926811;28;88367;-66
2023/02/11 03:24:22;;;;;;;16.47;9.50;;;3.60;99.90;3.40;101872.00;;;;4912182;28;100999;-66
2023/02/11 03:26:52;;;;;;;13.87;9.07;;;3.60;99.90;3.50;101858.00;;;;4913569;28;93171;-66
2023/02/11 03:29:39;;;;;;;12.00;8.07;;;3.70;99.90;3.50;101859.00;;;;4915121;28;88157;-66
2023/02/11 03:32:34;;;;;;;18.07;9.87;;;3.70;99.90;3.50;101844.00;;;;4914465;28;88907;-66
2023/02/11 03:35:10;;;;;;;16.43;9.50;;;3.80;99.90;3.60;101857.00;;;;4926227;28;111556;-66
2023/02/11 03:38:03;;;;;;;17.23;9.20;;;3.80;99.90;3.60;101846.00;;;;4929720;28;87779;-65
2023/02/11 03:40:35;;;;;;;25.33;9.93;;;3.80;99.90;3.70;101854.00;;;;4916480;28;94387;-66
2023/02/11 03:43:06;;;;;;;18.40;10.70;;;3.90;99.90;3.70;101855.00;;;;4911733;28;112551;-66
2023/02/11 03:45:32;;;;;;;14.70;9.13;;;3.90;99.90;3.70;101855.00;;;;4926727;28;88537;-66
2023/02/11 03:48:10;;;;;;;15.00;8.83;;;4.00;99.90;3.70;101838.00;;;;4925615;28;110034;-63
2023/02/11 03:50:38;;;;;;;17.27;9.83;;;4.00;99.90;3.80;101841.00;;;;4930204;28;87306;-66
2023/02/11 03:53:04;;;;;;;19.03;11.07;;;3.90;99.90;3.80;101834.00;;;;4913068;28;116662;-65
2023/02/11 03:55:34;;;;;;;13.40;9.07;;;3.90;99.90;3.80;101838.00;;;;4910174;28;119074;-66
2023/02/11 03:58:00;;;;;;;14.10;9.70;;;4.30;99.90;3.80;101833.00;;;;4921805;28;101303;-66
2023/02/11 04:00:36;;;;;;;15.93;10.27;;;4.00;99.90;3.80;101833.00;;;;4916057;28;108413;-66
2023/02/11 04:03:03;;;;;;;15.73;11.37;;;4.00;99.90;3.80;101833.00;;;;4910311;28;89007;-63
2023/02/11 04:05:29;;;;;;;17.47;10.30;;;3.90;99.90;3.80;101833.00;;;;4913586;28;88959;-66
2023/02/11 04:07:54;;;;;;;19.00;10.60;;;4.00;99.90;3.90;101850.00;;;;4915809;28;112893;-66
2023/02/11 04:10:20;;;;;;;24.07;9.97;;;4.00;99.90;3.90;101836.00;;;;4912934;28;109367;-66
2023/02/11 04:12:46;;;;;;;19.83;10.97;;;4.10;99.90;3.90;101843.00;;;;4914688;28;116085;-65
2023/02/11 04:15:11;;;;;;;13.97;8.43;;;4.10;99.90;3.90;101829.00;;;;4914025;28;112688;-65
2023/02/11 04:17:38;;;;;;;15.17;10.07;;;4.10;99.90;3.90;101840.00;;;;4912970;28;113137;-66
2023/02/11 04:20:04;;;;;;;19.57;9.43;;;4.10;99.90;3.90;101837.00;;;;4910380;28;95083;-65
2023/02/11 04:22:30;;;;;;;20.90;11.23;;;4.10;99.90;3.90;101828.00;;;;4912459;28;89105;-66
2023/02/11 04:24:56;;;;;;;17.27;10.87;;;4.10;99.90;3.90;101817.00;;;;4910164;28;118746;-67
2023/02/11 04:27:22;;;;;;;18.20;9.97;;;4.10;99.90;4.00;101837.00;;;;4909685;28;87943;-65
2023/02/11 04:29:47;;;;;;;17.70;10.20;;;4.10;99.90;4.00;101838.00;;;;4913710;28;88062;-66
2023/02/11 04:32:13;;;;;;;18.43;10.70;;;4.10;99.90;4.00;101838.00;;;;4910197;28;118104;-67
2023/02/11 04:34:39;;;;;;;18.70;11.40;;;4.10;99.90;4.00;101846.00;;;;4914500;28;88150;-66
2023/02/11 04:37:05;;;;;;;20.47;11.80;;;4.20;99.90;4.00;101844.00;;;;4913101;28;114094;-66
2023/02/11 04:39:31;;;;;;;18.33;10.50;;;4.30;99.90;4.00;101836.00;;;;4911964;28;109078;-67
2023/02/11 04:41:56;;;;;;;17.60;8.80;;;4.30;99.90;4.00;101848.00;;;;4916536;28;110890;-66
2023/02/11 04:44:22;;;;;;;15.63;10.47;;;4.30;99.90;4.10;101826.00;;;;4913324;28;116406;-66
2023/02/11 04:46:48;;;;;;;18.83;10.53;;;4.20;99.90;4.10;101832.00;;;;4913882;28;110247;-66
2023/02/11 04:49:15;;;;;;;18.70;10.37;;;4.30;99.90;4.10;101834.00;;;;4911896;28;107037;-65
2023/02/11 04:51:43;;;;;;;18.73;11.73;;;4.30;99.90;4.10;101823.00;;;;4916099;28;87759;-66
2023/02/11 04:54:09;;;;;;;23.53;11.63;;;4.30;99.90;4.10;101830.00;;;;4913692;28;87844;-66
2023/02/11 04:56:35;;;;;;;18.33;10.57;;;4.30;99.90;4.10;101826.00;;;;4915955;28;105322;-67
2023/02/11 04:59:01;;;;;;;20.33;11.00;;;4.30;99.90;4.10;101823.00;;;;4916140;28;87671;-66
2023/02/11 05:01:26;;;;;;;18.70;10.93;;;4.30;99.90;4.10;101817.00;;;;4913247;28;117863;-67
2023/02/11 05:03:52;;;;;;;22.10;10.47;;;4.30;99.90;4.10;101815.00;;;;4915378;28;115753;-67
2023/02/11 05:06:18;;;;;;;26.50;12.50;;;4.30;99.90;4.10;101829.00;;;;4913615;28;112001;-65
2023/02/11 05:08:44;;;;;;;19.73;10.97;;;4.20;99.90;4.10;101833.00;;;;4917186;28;88351;-66
2023/02/11 05:11:20;;;;;;;20.27;11.80;;;4.30;99.90;4.00;101826.00;;;;4910442;28;117288;-66
2023/02/11 05:13:47;;;;;;;17.17;10.30;;;4.40;99.90;4.00;101838.00;;;;4912905;28;89101;-64
2023/02/11 05:16:13;;;;;;;22.83;11.77;;;4.20;99.90;4.00;101822.00;;;;4912659;28;87917;-64
2023/02/11 05:18:41;;;;;;;26.87;11.47;;;4.30;99.90;4.00;101832.00;;;;4911203;28;101324;-64
2023/02/11 05:21:15;;;;;;;13.60;9.37;;;4.20;99.90;4.00;101834.00;;;;4915273;28;103593;-65
2023/02/11 05:23:41;;;;;;;20.57;11.90;;;4.30;99.90;4.00;101823.00;;;;4915402;28;88466;-66
2023/02/11 05:26:07;;;;;;;14.47;10.47;;;4.20;99.90;4.00;101824.00;;;;4912529;28;87800;-65
2023/02/11 05:28:34;;;;;;;21.23;12.43;;;4.20;99.90;4.00;101822.00;;;;4914933;28;95523;-64
2023/02/11 05:31:00;;;;;;;15.80;11.00;;;4.20;99.90;4.00;101817.00;;;;4910669;28;88688;-65
2023/02/11 05:33:26;;;;;;;18.37;10.17;;;4.20;99.90;4.00;101811.00;;;;4909777;28;90397;-65
2023/02/11 05:35:51;;;;;;;21.43;12.63;;;4.30;99.90;4.00;101795.00;;;;4911089;28;113614;-64
2023/02/11 05:38:17;;;;;;;21.87;11.97;;;4.20;99.90;4.00;101814.00;;;;4910970;28;87684;-64
2023/02/11 05:40:43;;;;;;;23.30;12.83;;;4.20;99.90;4.00;101791.00;;;;4911507;28;116613;-65
2023/02/11 05:43:08;;;;;;;19.03;9.73;;;4.20;99.90;4.00;101793.00;;;;4910707;28;88278;-64
2023/02/11 05:45:35;;;;;;;14.97;10.70;;;4.30;99.90;4.00;101804.00;;;;4914903;28;113350;-65
2023/02/11 05:48:00;;;;;;;22.00;13.63;;;4.20;99.90;3.90;101807.00;;;;4911406;28;108896;-64
2023/02/11 05:50:26;;;;;;;18.67;12.20;;;4.10;99.90;4.00;101802.00;;;;4910039;28;118077;-64
2023/02/11 05:52:52;;;;;;;18.97;10.33;;;4.20;99.90;3.90;101803.00;;;;4911530;28;119112;-64
2023/02/11 05:55:18;;;;;;;22.97;11.97;;;4.10;99.90;3.90;101805.00;;;;4915282;28;114041;-65
2023/02/11 05:57:44;;;;;;;21.03;12.30;;;4.50;99.90;4.00;101804.00;;;;4911407;28;106767;-66
2023/02/11 06:00:10;;;;;;;14.67;10.20;;;4.20;99.90;3.90;101804.00;;;;4909593;28;102448;-65
2023/02/11 06:02:36;;;;;;;17.53;11.60;;;4.20;99.90;3.90;101800.00;;;;4910242;28;103949;-63
2023/02/11 06:05:02;;;;;;;16.67;10.70;;;4.20;99.90;3.90;101806.00;;;;4913024;28;111993;-66
2023/02/11 06:07:27;;;;;;;17.30;10.40;;;5.00;99.90;3.90;101807.00;;;;4912124;28;108303;-64
2023/02/11 06:09:53;;;;;;;21.60;12.70;;;4.10;99.90;3.90;101801.00;;;;4915566;28;117639;-66
2023/02/11 06:12:18;;;;;;;17.47;10.77;;;4.30;99.90;4.00;101796.00;;;;4915023;28;104620;-66
2023/02/11 06:14:44;;;;;;;21.53;12.43;;;4.20;99.90;4.00;101795.00;;;;4907894;28;112857;-64
2023/02/11 06:17:10;;;;;;;18.73;12.07;;;4.10;99.90;4.00;101785.00;;;;4908878;28;109043;-65
2023/02/11 06:19:35;;;;;;;19.00;10.80;;;4.20;99.90;4.00;101782.00;;;;4907197;28;115887;-67
2023/02/11 06:22:01;;;;;;;21.43;11.93;;;4.10;99.90;4.00;101789.00;;;;4923145;28;117379;-65
2023/02/11 06:24:27;;;;;;;18.13;11.50;;;4.20;99.90;4.00;101788.00;;;;4905728;28;112722;-64
2023/02/11 06:26:52;;;;;;;22.77;11.97;;;4.20;99.90;4.00;101784.00;;;;4907471;28;109328;-65
2023/02/11 06:29:18;;;;;;;21.13;12.03;;;4.20;99.90;4.00;101783.00;;;;4908764;28;117998;-67
2023/02/11 06:31:44;;;;;;;15.80;10.47;;;4.20;99.90;4.00;101783.00;;;;4913796;28;118053;-66
2023/02/11 06:34:10;;;;;;;19.30;12.63;;;4.20;99.90;4.00;101782.00;;;;4906879;28;103145;-65
2023/02/11 06:36:38;;;;;;;23.87;12.87;;;4.20;99.90;4.00;101778.00;;;;4910647;28;107484;-66
2023/02/11 06:39:04;;;;;;;21.80;11.23;;;4.20;99.90;4.00;101782.00;;;;4909271;28;88008;-65
2023/02/11 06:41:30;;;;;;;19.87;10.80;;;4.20;99.90;4.10;101776.00;;;;4905213;28;114808;-65
2023/02/11 06:43:55;;;;;;;17.93;11.30;;;4.30;99.90;4.10;101791.00;;;;4906336;28;89631;-66
2023/02/11 06:46:21;;;;;;;21.43;10.13;;;4.30;99.90;4.10;101778.00;;;;4910083;28;108459;-65
2023/02/11 06:48:47;;;;;;;27.27;13.50;;;4.20;99.90;4.10;101785.00;;;;4911453;28;89762;-64
2023/02/11 06:51:14;;;;;;;18.23;11.60;;;5.00;99.90;4.20;101784.00;;;;4907500;28;89933;-66
2023/02/11 06:53:43;;;;;;;20.97;11.33;;;4.40;99.90;4.20;101776.00;;;;4910341;28;87974;-65
2023/02/11 06:56:13;;;;;;;22.23;10.97;;;4.40;99.90;4.20;101774.00;;;;4910256;28;87836;-65
2023/02/11 06:58:39;;;;;;;21.57;11.93;;;4.30;99.90;4.20;101780.00;;;;4906315;28;111891;-65
2023/02/11 07:01:07;;;;;;;22.30;12.27;;;4.40;99.90;4.20;101795.00;;;;4908883;28;116870;-65
2023/02/11 07:03:39;;;;;;;17.80;10.73;;;4.40;99.90;4.20;101795.00;;;;4910233;28;105486;-65
2023/02/11 07:06:06;;;;;;;15.63;10.37;;;4.40;99.90;4.20;101803.00;;;;4909640;28;87256;-65
2023/02/11 07:08:35;;;;;;;25.80;12.20;;;4.40;99.90;4.20;101807.00;;;;4909536;28;88775;-65
2023/02/11 07:11:00;;;;;;;16.63;10.13;;;4.40;99.90;4.30;101816.00;;;;4904358;28;88394;-64
2023/02/11 07:13:26;;;;;;;17.87;10.27;;;4.50;99.90;4.30;101813.00;;;;4899813;28;113306;-64
2023/02/11 07:15:52;;;;;;;20.30;12.40;;;4.50;99.90;4.30;101808.00;;;;4885602;28;108723;-65
2023/02/11 07:18:18;;;;;;;22.93;11.07;;;4.40;99.90;4.30;101807.00;;;;4889138;28;117808;-64
2023/02/11 07:20:43;;;;;;;20.57;11.07;;;4.60;99.90;4.30;101809.00;;;;4885503;28;96509;-65
2023/02/11 07:23:09;;;;;;;27.23;11.87;;;4.50;99.90;4.40;101795.00;;;;4925135;28;94875;-66
2023/02/11 07:25:35;;;;;;;17.93;10.10;;;4.50;99.90;4.40;101799.00;;;;4907831;28;108334;-64
2023/02/11 07:28:02;;;;;;;16.00;10.07;;;4.60;99.90;4.40;101805.00;;;;4907642;28;117826;-66
2023/02/11 07:30:28;;;;;;;21.43;11.23;;;4.60;99.90;4.40;101799.00;;;;4903598;28;107519;-65
2023/02/11 07:32:55;;;;;;;20.17;11.53;;;4.60;99.90;4.50;101813.00;;;;4907618;28;113010;-67
2023/02/11 07:35:20;;;;;;;22.50;11.73;;;4.60;99.90;4.50;101801.00;;;;4906763;28;99236;-65
2023/02/11 07:37:46;;;;;;;20.97;11.97;;;4.70;99.90;4.50;101809.00;;;;4905930;28;118571;-65
2023/02/11 07:40:12;;;;;;;17.73;12.03;;;4.60;99.90;4.60;101810.00;;;;4902575;28;118245;-65
2023/02/11 07:42:39;;;;;;;19.63;11.17;;;4.70;99.90;4.60;101811.00;;;;4906812;28;113008;-65
2023/02/11 07:45:05;;;;;;;16.27;10.77;;;4.70;99.90;4.60;101811.00;;;;4909914;28;87789;-67
2023/02/11 07:47:33;;;;;;;14.60;10.03;;;4.90;99.90;4.70;101799.00;;;;4908421;28;104431;-65
2023/02/11 07:49:58;;;;;;;17.27;10.23;;;4.80;99.90;4.70;101805.00;;;;4908078;28;88115;-66
2023/02/11 07:52:24;;;;;;;15.70;10.97;;;4.90;99.90;4.80;101800.00;;;;4909140;28;113636;-65
2023/02/11 07:54:50;;;;;;;19.37;11.37;;;4.90;99.90;4.80;101793.00;;;;4908130;28;107616;-66
2023/02/11 07:57:15;;;;;;;19.33;10.00;;;4.90;99.90;4.80;101802.00;;;;4907044;28;117459;-64
2023/02/11 07:59:41;;;;;;;23.87;12.47;;;5.40;99.90;4.80;101807.00;;;;4910131;28;116728;-64
2023/02/11 08:02:08;;;;;;;17.00;10.93;;;5.10;99.90;4.90;101813.00;;;;4905539;28;113243;-65
2023/02/11 08:04:33;;;;;;;19.33;11.33;;;5.90;99.90;4.90;101807.00;;;;4903243;28;107935;-64
2023/02/11 08:06:59;;;;;;;15.63;9.87;;;5.90;99.90;4.90;101806.00;;;;4905095;28;116157;-64
2023/02/11 08:09:25;;;;;;;20.43;11.13;;;5.10;99.90;4.90;101802.00;;;;4908015;28;93698;-65
2023/02/11 08:11:51;;;;;;;22.27;10.67;;;5.10;99.90;4.90;101799.00;;;;4910366;28;110316;-65
2023/02/11 08:14:16;;;;;;;21.20;10.80;;;5.10;99.90;4.90;101794.00;;;;4910728;28;109213;-64
2023/02/11 08:16:42;;;;;;;15.90;10.93;;;5.00;99.90;4.90;101794.00;;;;4909411;28;118309;-66
2023/02/11 08:19:13;;;;;;;18.10;10.97;;;6.00;99.90;5.00;101783.00;;;;4913831;28;102271;-65
2023/02/11 08:21:39;;;;;;;16.80;10.93;;;5.20;99.90;5.00;101802.00;;;;4915279;28;87948;-64
2023/02/11 08:24:06;;;;;;;23.20;10.90;;;5.10;99.90;5.00;101794.00;;;;4911304;28;88102;-65
2023/02/11 08:26:35;;;;;;;20.43;11.30;;;5.20;99.90;5.00;101788.00;;;;4912716;28;89479;-65
2023/02/11 08:29:09;;;;;;;21.97;11.17;;;5.20;99.90;5.00;101785.00;;;;4912563;28;89857;-65
2023/02/11 08:31:38;;;;;;;19.77;11.63;;;5.20;99.90;5.00;101783.00;;;;4908894;28;87786;-64
2023/02/11 08:34:04;;;;;;;25.13;12.23;;;5.70;99.90;5.10;101782.00;;;;4910238;28;87752;-64
2023/02/11 08:36:34;;;;;;;18.50;11.43;;;6.10;99.90;5.10;101799.00;;;;4913328;28;89096;-64
2023/02/11 08:39:04;;;;;;;25.63;11.93;;;5.30;99.90;5.10;101788.00;;;;4908853;28;91296;-63
2023/02/11 08:41:31;;;;;;;18.47;10.97;;;5.30;99.90;5.10;101799.00;;;;4908583;28;88224;-64
2023/02/11 08:43:57;;;;;;;17.10;10.50;;;5.30;99.90;5.10;101811.00;;;;4911616;28;101748;-64
2023/02/11 08:46:24;;;;;;;18.03;11.80;;;5.20;99.90;5.20;101812.00;;;;4907660;28;118886;-65
2023/02/11 08:48:50;;;;;;;20.03;10.70;;;5.30;99.90;5.20;101804.00;;;;4910028;28;117159;-64
2023/02/11 08:51:29;;;;;;;16.77;9.57;;;6.20;99.90;5.20;101818.00;;;;4910011;28;90407;-64
2023/02/11 08:53:55;;;;;;;18.33;10.67;;;5.40;99.90;5.20;101804.00;;;;4911315;28;88227;-66
2023/02/11 08:56:24;;;;;;;19.90;11.20;;;6.10;99.90;5.30;101799.00;;;;4911982;28;88379;-65
2023/02/11 08:58:51;;;;;;;19.83;9.80;;;5.30;99.90;5.30;101803.00;;;;4909630;28;88754;-65
2023/02/11 09:01:29;;;;;;;18.67;10.17;;;5.40;99.90;5.30;101807.00;;;;4911285;28;87919;-65
2023/02/11 09:03:56;;;;;;;17.80;10.60;;;6.40;99.90;5.40;101812.00;;;;4907734;28;88148;-66
2023/02/11 09:06:23;;;;;;;17.17;9.73;;;6.30;99.90;5.40;101824.00;;;;4913152;28;88572;-66
2023/02/11 09:08:53;;;;;;;17.00;11.03;;;5.50;99.90;5.40;101813.00;;;;4907250;28;89017;-66
2023/02/11 09:11:25;;;;;;;17.03;9.47;;;5.60;99.90;5.40;101826.00;;;;4910315;28;87810;-66
2023/02/11 09:13:51;;;;;;;18.20;10.90;;;5.60;99.90;5.40;101816.00;;;;4913117;28;87928;-66
2023/02/11 09:16:26;;;;;;;22.37;12.13;;;6.40;99.90;5.40;101838.00;;;;4908547;28;119039;-66
2023/02/11 09:18:52;;;;;;;23.17;11.13;;;5.60;99.90;5.40;101816.00;;;;4907183;28;89930;-66
2023/02/11 09:21:19;;;;;;;19.27;11.63;;;5.60;99.90;5.40;101827.00;;;;4905853;28;88856;-65
2023/02/11 09:23:46;;;;;;;18.73;9.87;;;5.60;99.90;5.40;101830.00;;;;4907270;28;87783;-66
2023/02/11 09:26:20;;;;;;;18.07;11.27;;;6.20;99.90;5.40;101820.00;;;;4909760;28;88653;-65
2023/02/11 09:28:47;;;;;;;17.47;10.47;;;5.70;99.90;5.50;101822.00;;;;4903764;28;89155;-65
2023/02/11 09:31:17;;;;;;;19.53;11.80;;;6.40;99.90;5.50;101814.00;;;;4908406;28;88167;-64
2023/02/11 09:33:48;;;;;;;21.60;10.57;;;5.70;99.90;5.60;101808.00;;;;4913452;28;87319;-65
2023/02/11 09:36:20;;;;;;;14.97;10.10;;;5.70;99.90;5.60;101813.00;;;;4910072;28;88779;-65
2023/02/11 09:38:47;;;;;;;24.80;12.03;;;5.80;99.90;5.70;101801.00;;;;4905924;28;101915;-66
2023/02/11 09:41:54;;;;;;;20.53;10.50;;;5.80;99.90;5.70;101807.00;;;;4907897;28;112730;-65
2023/02/11 09:44:31;;;;;;;21.40;11.80;;;5.80;99.90;5.70;101803.00;;;;4886282;28;88102;-64
2023/02/11 09:47:18;;;;;;;18.10;9.63;;;5.90;99.90;5.80;101820.00;;;;4909480;28;101589;-65
2023/02/11 09:49:50;;;;;;;19.23;11.37;;;6.00;99.90;5.80;101811.00;;;;4905738;28;109091;-65
2023/02/11 09:52:46;;;;;;;16.57;10.80;;;6.70;99.90;5.90;101811.00;;;;4905946;28;87924;-65
2023/02/11 09:55:25;;;;;;;17.07;10.33;;;6.00;99.90;5.90;101790.00;;;;4903557;28;92894;-66
2023/02/11 09:57:51;;;;;;;16.87;9.50;;;6.10;99.90;6.00;101791.00;;;;4906387;28;88515;-65
2023/02/11 10:00:36;;;;;;;17.70;10.07;;;6.10;99.90;6.00;101797.00;;;;4924496;28;117607;-65
2023/02/11 10:03:32;;;;;;;15.40;9.80;;;7.00;99.90;6.00;101802.00;;;;4905971;28;88056;-66
2023/02/11 10:06:34;;;;;;;16.47;10.37;;;6.20;99.90;6.00;101801.00;;;;4913677;28;98061;-65
2023/02/11 10:09:42;;;;;;;15.90;10.17;;;6.20;99.90;6.00;101796.00;;;;4910431;28;111179;-65
2023/02/11 10:12:40;;;;;;;23.17;11.13;;;6.20;99.90;6.00;101797.00;;;;4904673;28;110711;-66
2023/02/11 10:15:22;;;;;;;14.17;9.57;;;6.20;99.90;6.10;101800.00;;;;4908628;28;87994;-65
2023/02/11 10:18:36;;;;;;;19.07;9.27;;;6.30;99.90;6.00;101814.00;;;;4907734;28;87959;-65
2023/02/11 10:21:29;;;;;;;16.23;9.77;;;6.30;99.90;6.10;101823.00;;;;4885319;28;111364;-65
2023/02/11 10:23:59;;;;;;;15.17;9.77;;;7.10;99.90;6.10;101810.00;;;;4906397;28;87891;-66
2023/02/11 10:26:29;;;;;;;20.80;8.97;;;7.10;99.90;6.10;101798.00;;;;4922429;28;87915;-65
2023/02/11 10:29:01;;;;;;;16.37;10.53;;;7.00;99.90;6.10;101810.00;;;;4906401;28;87129;-66
2023/02/11 10:31:37;;;;;;;16.13;10.37;;;6.30;99.90;6.10;101806.00;;;;4923244;28;110742;-66
2023/02/11 10:34:13;;;;;;;16.90;10.23;;;6.30;99.90;6.10;101783.00;;;;4908400;28;87991;-65
2023/02/11 10:36:44;;;;;;;15.90;9.53;;;6.90;99.90;6.20;101798.00;;;;4908418;28;88939;-65
2023/02/11 10:39:17;;;;;;;17.33;10.43;;;6.30;99.90;6.20;101799.00;;;;4910977;28;88123;-65
2023/02/11 10:41:55;;;;;;;16.30;9.10;;;6.50;99.90;6.30;101796.00;;;;4908274;28;111229;-64
2023/02/11 10:44:33;;;;;;;13.93;9.13;;;6.50;99.90;6.30;101798.00;;;;4900814;28;108968;-65
2023/02/11 10:47:04;;;;;;;15.77;9.63;;;6.50;99.90;6.40;101799.00;;;;4905999;28;105959;-65
2023/02/11 10:49:40;;;;;;;22.83;9.23;;;6.50;99.90;6.40;101803.00;;;;4925381;28;87782;-65
2023/02/11 10:52:16;;;;;;;18.40;10.07;;;6.50;99.90;6.40;101781.00;;;;4911024;28;88990;-65
2023/02/11 10:55:12;;;;;;;17.23;10.93;;;6.60;99.90;6.40;101784.00;;;;4906943;28;101703;-65
2023/02/11 10:57:55;;;;;;;15.53;10.27;;;6.60;99.90;6.40;101790.00;;;;4909063;28;87677;-65
2023/02/11 11:00:35;;;;;;;18.20;10.23;;;6.60;99.90;6.40;101794.00;;;;4906638;28;88166;-66
2023/02/11 11:03:04;;;;;;;17.90;10.43;;;6.60;99.90;6.40;101812.00;;;;4921138;28;90229;-65
2023/02/11 11:05:36;;;;;;;24.57;11.03;;;6.70;99.90;6.40;101809.00;;;;4939021;28;89504;-67
2023/02/11 11:08:06;;;;;;;13.80;9.37;;;5.80;99.90;6.30;101812.00;;;;4920326;28;87986;-66